Time;durP1;ratioP1;P1;durP2;ratioP2;P2;SDS_P1;SDS_P2;PMS_P1;PMS_P2;Temp;Humidity;BMP_temperature;BMP_pressure;BME280_temperature;BME280_humidity;BME280_pressure;Samples;Min_cycle;Max_cycle;Signal;HPM_P1;HPM_P2
2022/12/23 00:01:34;;;;;;;;;1.75;1.75;;;;;4.02;99.18;97632.19;4917189;28;102140;-83
2022/12/23 00:04:01;;;;;;;;;2.50;2.00;;;;;3.95;99.17;97622.41;4909838;28;103989;-84
2022/12/23 00:06:28;;;;;;;;;5.75;2.00;;;;;3.97;98.44;97626.56;4920014;28;102200;-82
2022/12/23 00:08:56;;;;;;;;;0.00;0.00;;;;;3.97;99.24;97633.75;4914181;28;102064;-83
2022/12/23 00:11:27;;;;;;;;;4.50;2.25;;;;;3.91;98.80;97635.31;4925249;28;102458;-81
2022/12/23 00:16:47;;;;;;;;;2.75;2.00;;;;;3.89;99.72;97641.84;4918134;28;102337;-82
2022/12/23 00:19:14;;;;;;;;;1.50;1.50;;;;;3.89;100.00;97644.53;4921755;28;102052;-80
2022/12/23 00:21:41;;;;;;;;;3.50;3.50;;;;;3.84;99.79;97645.06;4924733;28;102909;-81
2022/12/23 00:24:08;;;;;;;;;1.75;1.75;;;;;3.82;99.15;97647.09;4914974;28;104079;-81
2022/12/23 00:26:35;;;;;;;;;2.00;2.00;;;;;3.80;99.89;97630.41;4922935;28;102488;-81
2022/12/23 00:29:02;;;;;;;;;0.25;0.25;;;;;3.62;99.43;97607.69;4920365;28;102223;-82
2022/12/23 00:31:29;;;;;;;;;1.75;1.75;;;;;3.81;100.00;97633.91;4919380;28;102390;-82
2022/12/23 00:33:56;;;;;;;;;1.75;1.00;;;;;3.78;99.49;97644.97;4909503;28;104183;-83
2022/12/23 00:36:28;;;;;;;;;1.75;1.00;;;;;3.79;99.66;97647.44;4914086;28;102484;-83
2022/12/23 00:44:29;;;;;;;;;1.00;0.00;;;;;3.75;100.00;97650.66;4910959;28;108580;-84
2022/12/23 00:46:56;;;;;;;;;1.00;0.50;;;;;3.73;99.99;97660.72;4910411;28;103193;-84
2022/12/23 00:49:41;;;;;;;;;0.00;0.00;;;;;3.72;100.00;97654.56;4912469;28;102029;-77
2022/12/23 00:52:11;;;;;;;;;1.00;1.00;;;;;3.70;99.90;97648.53;4908320;28;102460;-84
2022/12/23 00:54:39;;;;;;;;;0.00;0.00;;;;;3.68;100.00;97665.78;4911448;28;104185;-84
2022/12/23 00:57:06;;;;;;;;;0.00;0.00;;;;;3.68;100.00;97660.44;4911225;28;102482;-83
2022/12/23 00:59:33;;;;;;;;;1.00;1.00;;;;;3.54;99.74;97654.03;4916356;28;102169;-83
2022/12/23 01:07:31;;;;;;;;;0.00;0.00;;;;;3.57;100.00;97659.84;4908437;28;102213;-81
2022/12/23 01:09:58;;;;;;;;;2.00;1.25;;;;;3.54;100.00;97638.00;4914334;28;102569;-82
2022/12/23 01:12:25;;;;;;;;;0.00;0.00;;;;;3.60;100.00;97654.13;4920256;28;102327;-82
2022/12/23 01:14:52;;;;;;;;;1.00;1.00;;;;;3.59;100.00;97649.81;4918369;28;104001;-82
2022/12/23 01:17:19;;;;;;;;;1.00;0.00;;;;;3.59;100.00;97649.00;4915499;28;103243;-81
2022/12/23 01:19:46;;;;;;;;;0.75;0.75;;;;;3.53;100.00;97647.88;4912321;28;102166;-83
2022/12/23 01:22:13;;;;;;;;;1.00;1.00;;;;;3.56;100.00;97652.84;4914224;28;102558;-86
2022/12/23 01:24:40;;;;;;;;;0.00;0.00;;;;;3.54;100.00;97660.22;4912584;28;104057;-84
2022/12/23 01:27:07;;;;;;;;;1.75;1.00;;;;;3.55;100.00;97656.56;4920631;28;102440;-84
2022/12/23 01:29:34;;;;;;;;;0.00;0.00;;;;;3.55;100.00;97653.03;4912294;28;102187;-83
2022/12/23 01:32:01;;;;;;;;;0.00;0.00;;;;;3.50;100.00;97648.22;4914605;28;102424;-82
2022/12/23 01:34:28;;;;;;;;;0.00;0.00;;;;;3.52;100.00;97653.38;4920721;28;104477;-82
2022/12/23 01:37:01;;;;;;;;;0.00;0.00;;;;;3.53;100.00;97655.06;4912539;28;102205;-82
2022/12/23 01:39:28;;;;;;;;;0.25;0.00;;;;;3.53;100.00;97655.88;4914154;28;102098;-85
2022/12/23 01:44:52;;;;;;;;;0.50;0.00;;;;;3.52;100.00;97651.53;4922854;28;104009;-87
2022/12/23 01:47:47;;;;;;;;;1.00;0.00;;;;;3.52;100.00;97651.53;4926651;28;102355;-87
2022/12/23 01:50:41;;;;;;;;;0.00;0.00;;;;;3.51;100.00;97657.88;4902285;28;101895;-87
2022/12/23 01:53:15;;;;;;;;;0.00;0.00;;;;;3.52;100.00;97661.41;4916659;28;102220;-85
2022/12/23 01:55:48;;;;;;;;;0.00;0.00;;;;;3.51;100.00;97663.22;4921171;28;104027;-84
2022/12/23 01:58:20;;;;;;;;;0.75;0.00;;;;;3.49;100.00;97659.94;4910810;28;102378;-84
2022/12/23 02:03:42;;;;;;;;;1.50;1.00;;;;;3.42;100.00;97658.97;4912578;28;101935;-84
2022/12/23 02:09:22;;;;;;;;;1.00;0.00;;;;;3.41;100.00;97665.34;4908226;28;101830;-85
2022/12/23 02:12:32;;;;;;;;;0.00;0.00;;;;;3.39;100.00;97664.69;4920789;28;102131;-84
2022/12/23 02:19:26;;;;;;;;;0.25;0.25;;;;;3.30;100.00;97687.13;4909399;28;108513;-85
2022/12/23 02:22:33;;;;;;;;;0.50;0.00;;;;;3.26;100.00;97682.31;4908579;28;102001;-85
2022/12/23 02:26:06;;;;;;;;;1.25;1.25;;;;;3.22;100.00;97694.38;4905675;28;103717;-80
2022/12/23 02:29:13;;;;;;;;;1.00;0.00;;;;;3.22;100.00;97691.69;4911870;28;102481;-82
2022/12/23 02:32:04;;;;;;;;;1.00;1.00;;;;;3.19;100.00;97673.34;4913806;28;107413;-81
2022/12/23 02:34:45;;;;;;;;;1.00;1.00;;;;;3.18;100.00;97669.84;4921714;28;101854;-83
2022/12/23 02:37:15;;;;;;;;;1.25;0.75;;;;;3.15;100.00;97683.56;4919013;28;101946;-79
2022/12/23 02:40:05;;;;;;;;;0.00;0.00;;;;;3.14;100.00;97679.22;4914356;28;102394;-80
2022/12/23 02:42:39;;;;;;;;;1.00;1.00;;;;;3.10;100.00;97683.25;4913924;28;108461;-80
2022/12/23 02:45:34;;;;;;;;;0.00;0.00;;;;;3.07;100.00;97686.25;4914632;28;102472;-82
2022/12/23 02:48:07;;;;;;;;;0.00;0.00;;;;;3.08;100.00;97685.25;4899358;28;102172;-83
2022/12/23 02:50:40;;;;;;;;;0.00;0.00;;;;;3.07;100.00;97691.59;4896996;28;102174;-82
2022/12/23 02:53:17;;;;;;;;;0.00;0.00;;;;;3.07;100.00;97684.44;4905765;28;104005;-82
2022/12/23 02:55:47;;;;;;;;;0.00;0.00;;;;;3.11;100.00;97668.88;4907473;28;102092;-83
2022/12/23 02:58:18;;;;;;;;;2.00;0.00;;;;;3.14;100.00;97673.88;4916583;28;102137;-83
2022/12/23 03:00:47;;;;;;;;;1.00;1.00;;;;;3.15;100.00;97671.03;4920043;28;102031;-85
2022/12/23 03:03:15;;;;;;;;;0.00;0.00;;;;;2.83;100.00;97615.19;4912582;28;104050;-81
2022/12/23 03:05:46;;;;;;;;;1.00;0.00;;;;;3.22;100.00;97660.47;4913119;28;106061;-83
2022/12/23 03:08:19;;;;;;;;;0.00;0.00;;;;;3.25;100.00;97665.44;4915737;28;102340;-81
2022/12/23 03:10:58;;;;;;;;;0.00;0.00;;;;;3.28;100.00;97669.63;4914507;28;102124;-85
2022/12/23 03:13:44;;;;;;;;;0.25;0.25;;;;;3.28;100.00;97665.13;4907254;28;108788;-84
2022/12/23 03:16:16;;;;;;;;;0.00;0.00;;;;;3.27;100.00;97663.44;4916586;28;102087;-85
2022/12/23 03:19:10;;;;;;;;;2.00;0.00;;;;;3.28;100.00;97667.78;4926383;28;102045;-85
2022/12/23 03:21:53;;;;;;;;;1.00;0.50;;;;;3.26;100.00;97663.63;4918668;28;102126;-87
2022/12/23 03:24:26;;;;;;;;;0.75;0.75;;;;;3.22;100.00;97670.31;4918604;28;108612;-83
2022/12/23 03:27:08;;;;;;;;;0.50;0.00;;;;;3.20;100.00;97665.16;4918136;28;106499;-84
2022/12/23 03:30:01;;;;;;;;;0.00;0.00;;;;;3.19;100.00;97665.34;4924243;28;102193;-85
2022/12/23 03:32:35;;;;;;;;;0.50;0.00;;;;;3.17;100.00;97662.84;4917735;28;102127;-82
2022/12/23 03:35:06;;;;;;;;;0.00;0.00;;;;;3.15;100.00;97670.22;4920540;28;104025;-83
2022/12/23 03:37:36;;;;;;;;;0.00;0.00;;;;;3.17;100.00;97670.84;4918486;28;103051;-82
2022/12/23 03:40:17;;;;;;;;;0.00;0.00;;;;;3.15;100.00;97668.34;4928316;28;102831;-82
2022/12/23 03:42:49;;;;;;;;;0.00;0.00;;;;;3.15;100.00;97659.53;4916474;28;103916;-84
2022/12/23 03:45:24;;;;;;;;;0.00;0.00;;;;;3.20;100.00;97675.03;4913529;28;103929;-82
2022/12/23 03:48:14;;;;;;;;;0.50;0.00;;;;;3.19;100.00;97681.38;4921084;28;102728;-82
2022/12/23 03:50:43;;;;;;;;;1.00;0.00;;;;;3.21;100.00;97669.50;4925365;28;102138;-83
2022/12/23 03:53:17;;;;;;;;;0.00;0.00;;;;;3.22;100.00;97667.66;4923350;28;102004;-83
2022/12/23 03:56:00;;;;;;;;;0.00;0.00;;;;;3.23;100.00;97672.81;4924689;28;104021;-82
2022/12/23 03:58:28;;;;;;;;;0.00;0.00;;;;;3.24;100.00;97673.66;4924338;28;102209;-82
2022/12/23 04:01:16;;;;;;;;;0.50;0.50;;;;;3.16;100.00;97666.50;4923227;28;103337;-82
2022/12/23 04:04:06;;;;;;;;;0.00;0.00;;;;;3.16;100.00;97661.16;4917568;28;102210;-83
2022/12/23 04:06:50;;;;;;;;;0.50;0.00;;;;;3.11;100.00;97674.22;4916905;28;108960;-84
2022/12/23 04:09:20;;;;;;;;;0.00;0.00;;;;;3.04;100.00;97665.25;4925981;28;102090;-83
2022/12/23 04:11:49;;;;;;;;;0.75;0.00;;;;;2.93;100.00;97661.16;4926105;28;102058;-84
2022/12/23 04:14:17;;;;;;;;;0.00;0.00;;;;;2.92;100.00;97658.69;4924801;28;102089;-83
2022/12/23 04:16:46;;;;;;;;;0.00;0.00;;;;;2.88;100.00;97660.84;4926368;28;104160;-84
2022/12/23 04:19:14;;;;;;;;;0.00;0.00;;;;;2.82;100.00;97658.06;4917116;28;102406;-83
2022/12/23 04:21:41;;;;;;;;;0.50;0.00;;;;;2.74;100.00;97656.28;4925517;28;102195;-83
2022/12/23 04:24:07;;;;;;;;;0.75;0.00;;;;;2.71;100.00;97653.94;4927174;28;102332;-82
2022/12/23 04:26:34;;;;;;;;;0.00;0.00;;;;;2.68;100.00;97652.47;4928906;28;103009;-82
2022/12/23 04:29:01;;;;;;;;;0.00;0.00;;;;;2.65;100.00;97657.31;4928016;28;102261;-82
2022/12/23 04:31:28;;;;;;;;;0.75;0.00;;;;;2.58;100.00;97643.00;4921994;28;102315;-82
2022/12/23 04:33:56;;;;;;;;;0.00;0.00;;;;;2.51;100.00;97626.88;4926526;28;102037;-80
2022/12/23 04:36:23;;;;;;;;;1.00;0.00;;;;;2.52;100.00;97630.38;4919789;28;104180;-82
2022/12/23 04:38:50;;;;;;;;;0.00;0.00;;;;;2.53;100.00;97632.84;4919383;28;102198;-81
2022/12/23 04:41:17;;;;;;;;;0.00;0.00;;;;;2.50;100.00;97621.69;4924877;28;102017;-81
2022/12/23 04:43:44;;;;;;;;;0.00;0.00;;;;;2.49;100.00;97623.53;4915486;28;102368;-81
2022/12/23 04:46:18;;;;;;;;;0.00;0.00;;;;;2.49;100.00;97610.19;4915422;28;103117;-81
2022/12/23 04:48:45;;;;;;;;;0.00;0.00;;;;;2.49;100.00;97620.88;4915520;28;102205;-81
2022/12/23 04:51:12;;;;;;;;;0.00;0.00;;;;;2.50;100.00;97617.19;4919032;28;102096;-81
2022/12/23 04:53:39;;;;;;;;;0.25;0.00;;;;;2.51;100.00;97613.53;4921877;28;103452;-81
2022/12/23 04:56:06;;;;;;;;;0.00;0.00;;;;;2.50;100.00;97619.88;4925196;28;103996;-81
2022/12/23 04:58:33;;;;;;;;;0.00;0.00;;;;;2.48;100.00;97608.53;4923490;28;102218;-80
2022/12/23 05:01:08;;;;;;;;;0.00;0.00;;;;;2.48;100.00;97608.53;4941082;28;102388;-80
2022/12/23 05:03:36;;;;;;;;;0.00;0.00;;;;;2.46;100.00;97615.06;4923668;28;102357;-80
2022/12/23 05:06:04;;;;;;;;;0.25;0.00;;;;;2.35;100.00;97605.59;4940857;28;104075;-81
2022/12/23 05:08:31;;;;;;;;;0.00;0.00;;;;;2.40;100.00;97603.25;4935893;28;102420;-79
2022/12/23 05:10:58;;;;;;;;;0.00;0.00;;;;;2.44;100.00;97617.06;4920170;28;102084;-80
2022/12/23 05:13:25;;;;;;;;;0.00;0.00;;;;;2.43;100.00;97610.88;4941199;28;102031;-77
2022/12/23 05:15:53;;;;;;;;;0.00;0.00;;;;;2.43;100.00;97616.22;4936063;28;104042;-79
2022/12/23 05:18:21;;;;;;;;;0.00;0.00;;;;;2.43;100.00;97616.22;4924940;28;102243;-79
2022/12/23 05:20:49;;;;;;;;;0.00;0.00;;;;;2.43;100.00;97618.88;4915023;28;102183;-80
2022/12/23 05:23:16;;;;;;;;;0.00;0.00;;;;;2.17;100.00;97584.50;4912259;28;102860;-80
2022/12/23 05:25:48;;;;;;;;;0.00;0.00;;;;;2.14;100.00;97578.69;4919496;28;103224;-80
2022/12/23 05:28:15;;;;;;;;;0.00;0.00;;;;;2.35;100.00;97618.94;4908548;28;103654;-81
2022/12/23 05:30:42;;;;;;;;;0.75;0.00;;;;;2.31;100.00;97604.28;4926447;28;102427;-80
2022/12/23 05:33:09;;;;;;;;;0.00;0.00;;;;;2.39;100.00;97624.75;4927678;28;102074;-80
2022/12/23 05:35:36;;;;;;;;;1.00;0.00;;;;;2.39;100.00;97630.06;4921385;28;104119;-81
2022/12/23 05:38:03;;;;;;;;;0.00;0.00;;;;;2.36;100.00;97614.44;4917794;28;101953;-81
2022/12/23 05:40:30;;;;;;;;;0.50;0.00;;;;;2.39;100.00;97622.06;4927114;28;102358;-80
2022/12/23 05:42:59;;;;;;;;;0.00;0.00;;;;;2.37;100.00;97616.94;4915039;28;102158;-81
2022/12/23 05:45:26;;;;;;;;;1.00;0.00;;;;;2.33;100.00;97626.28;4922089;28;104170;-80
2022/12/23 05:47:53;;;;;;;;;0.00;0.00;;;;;2.32;100.00;97621.13;4924262;28;102363;-81
2022/12/23 05:50:20;;;;;;;;;0.25;0.00;;;;;2.31;100.00;97627.44;4925587;28;102321;-81
2022/12/23 05:52:47;;;;;;;;;0.75;0.00;;;;;2.29;100.00;97629.47;4924996;28;102161;-81
2022/12/23 05:55:14;;;;;;;;;0.00;0.00;;;;;2.23;100.00;97626.50;4922052;28;103932;-80
2022/12/23 05:57:41;;;;;;;;;1.25;1.25;;;;;2.09;100.00;97623.69;4922390;28;102152;-80
2022/12/23 06:00:08;;;;;;;;;1.25;1.25;;;;;2.00;100.00;97630.06;4919312;28;102185;-80
2022/12/23 06:02:35;;;;;;;;;2.75;2.00;;;;;1.96;100.00;97628.75;4913267;28;102161;-80
2022/12/23 06:05:03;;;;;;;;;2.25;2.00;;;;;1.92;100.00;97619.44;4917400;28;103020;-80
2022/12/23 06:07:30;;;;;;;;;1.25;0.75;;;;;2.00;100.00;97635.41;4924397;28;102842;-81
2022/12/23 06:09:57;;;;;;;;;1.00;1.00;;;;;2.01;100.00;97635.22;4916345;28;102078;-80
2022/12/23 06:12:24;;;;;;;;;0.00;0.00;;;;;2.03;100.00;97633.22;4919183;28;102199;-80
2022/12/23 06:14:51;;;;;;;;;1.00;0.00;;;;;2.02;100.00;97628.06;4918390;28;108704;-80
2022/12/23 06:17:18;;;;;;;;;3.00;1.00;;;;;2.02;100.00;97625.41;4927789;28;102331;-79
2022/12/23 06:19:46;;;;;;;;;3.00;2.00;;;;;1.99;100.00;97629.22;4920218;28;102919;-80
2022/12/23 06:22:13;;;;;;;;;1.00;1.00;;;;;1.98;100.00;97622.22;4914986;28;102195;-79
2022/12/23 06:24:41;;;;;;;;;0.00;0.00;;;;;1.96;100.00;97618.09;4931630;28;103942;-81
2022/12/23 06:27:08;;;;;;;;;1.00;1.00;;;;;1.90;100.00;97618.75;4930511;28;102371;-80
2022/12/23 06:29:35;;;;;;;;;0.00;0.00;;;;;1.93;100.00;97624.59;4934224;28;102542;-81
2022/12/23 06:32:02;;;;;;;;;0.00;0.00;;;;;1.90;100.00;97616.94;4927287;28;102063;-80
2022/12/23 06:34:30;;;;;;;;;0.00;0.00;;;;;1.96;100.00;97618.91;4910131;28;104179;-80
2022/12/23 06:36:57;;;;;;;;;0.25;0.00;;;;;2.00;100.00;97620.22;4924153;28;102392;-79
2022/12/23 06:39:24;;;;;;;;;0.00;0.00;;;;;2.05;100.00;97622.38;4922772;28;102043;-80
2022/12/23 06:41:51;;;;;;;;;0.00;0.00;;;;;2.08;100.00;97619.38;4910619;28;106748;-79
2022/12/23 06:44:18;;;;;;;;;1.00;0.00;;;;;2.07;100.00;97615.88;4927912;28;104038;-80
2022/12/23 06:46:45;;;;;;;;;0.00;0.00;;;;;2.14;100.00;97624.84;4923363;28;102094;-80
2022/12/23 06:49:12;;;;;;;;;0.00;0.00;;;;;2.22;100.00;97630.16;4927797;28;102294;-80
2022/12/23 06:51:40;;;;;;;;;0.00;0.00;;;;;2.28;100.00;97623.31;4926095;28;102130;-80
2022/12/23 06:54:10;;;;;;;;;0.00;0.00;;;;;2.36;100.00;97623.25;4918260;28;104029;-79
2022/12/23 06:56:37;;;;;;;;;0.00;0.00;;;;;2.42;100.00;97619.06;4923418;28;102451;-80
2022/12/23 06:59:04;;;;;;;;;0.00;0.00;;;;;2.46;100.00;97621.22;4911615;28;102164;-77
2022/12/23 07:01:31;;;;;;;;;0.00;0.00;;;;;2.53;100.00;97622.19;4924386;28;102321;-79
2022/12/23 07:03:59;;;;;;;;;0.00;0.00;;;;;2.60;100.00;97617.81;4916048;28;104146;-79
2022/12/23 07:06:25;;;;;;;;;0.00;0.00;;;;;2.62;100.00;97604.28;4924130;28;102197;-78
2022/12/23 07:08:52;;;;;;;;;0.00;0.00;;;;;2.69;100.00;97616.78;4922617;28;102244;-79
2022/12/23 07:11:19;;;;;;;;;0.00;0.00;;;;;2.73;100.00;97619.06;4923213;28;102075;-79
2022/12/23 07:13:46;;;;;;;;;0.00;0.00;;;;;2.80;100.00;97617.34;4935262;28;104034;-80
2022/12/23 07:16:13;;;;;;;;;0.00;0.00;;;;;2.84;100.00;97613.31;4929028;28;102192;-78
2022/12/23 07:18:41;;;;;;;;;0.00;0.00;;;;;2.89;100.00;97616.28;4927719;28;101624;-78
2022/12/23 07:21:08;;;;;;;;;1.00;0.00;;;;;2.93;100.00;97612.25;4932356;28;101931;-80
2022/12/23 07:23:50;;;;;;;;;0.75;0.00;;;;;3.04;100.00;97614.53;4926466;28;103181;-79
2022/12/23 07:26:17;;;;;;;;;0.00;0.00;;;;;3.10;100.00;97609.31;4919090;28;102175;-79
2022/12/23 07:28:46;;;;;;;;;0.00;0.00;;;;;3.18;100.00;97605.75;4912682;28;102799;-79
2022/12/23 07:31:14;;;;;;;;;0.00;0.00;;;;;3.25;100.00;97609.34;4912126;28;102284;-78
2022/12/23 07:33:41;;;;;;;;;0.00;0.00;;;;;3.30;100.00;97623.00;4910059;28;104066;-78
2022/12/23 07:36:08;;;;;;;;;1.00;0.00;;;;;3.36;100.00;97622.31;4919003;28;102043;-79
2022/12/23 07:38:35;;;;;;;;;0.00;0.00;;;;;3.39;100.00;97619.25;4923911;28;102054;-79
2022/12/23 07:41:02;;;;;;;;;0.00;0.00;;;;;3.41;100.00;97619.09;4916936;28;102599;-71
2022/12/23 07:43:29;;;;;;;;;1.00;0.00;;;;;3.43;100.00;97625.91;4924082;28;104079;-71
2022/12/23 07:45:56;;;;;;;;;1.00;0.00;;;;;3.42;100.00;97621.56;4929321;28;102487;-71
2022/12/23 07:48:26;;;;;;;;;0.25;0.25;;;;;3.22;100.00;97590.19;4915681;28;104124;-71
2022/12/23 07:50:59;;;;;;;;;0.00;0.00;;;;;3.44;100.00;97624.06;4924621;28;102317;-71
2022/12/23 07:53:27;;;;;;;;;0.50;0.00;;;;;3.44;100.00;97624.06;4918338;28;108708;-71
2022/12/23 07:55:54;;;;;;;;;1.00;0.00;;;;;3.47;100.00;97631.72;4902737;28;102182;-71
2022/12/23 07:58:23;;;;;;;;;3.00;3.00;;;;;3.46;100.00;97635.41;4909702;28;102288;-71
2022/12/23 08:00:50;;;;;;;;;7.00;5.50;;;;;3.41;99.60;97638.63;4912095;28;102301;-71
2022/12/23 08:03:17;;;;;;;;;6.00;3.00;;;;;3.47;100.00;97640.56;4910726;28;103954;-71
2022/12/23 08:05:44;;;;;;;;;2.75;2.75;;;;;3.50;100.00;97636.72;4916680;28;102161;-71
2022/12/23 08:08:11;;;;;;;;;4.50;3.00;;;;;3.53;99.84;97636.34;4909831;28;101953;-71
2022/12/23 08:10:38;;;;;;;;;2.75;2.75;;;;;3.58;99.66;97631.28;4925910;28;102374;-71
2022/12/23 08:13:13;;;;;;;;;2.00;2.00;;;;;3.60;100.00;97624.75;4922254;28;104128;-71
2022/12/23 08:15:40;;;;;;;;;2.00;1.00;;;;;3.64;99.71;97627.06;4924463;28;102352;-70
2022/12/23 08:18:07;;;;;;;;;1.50;1.00;;;;;3.66;99.88;97625.03;4920126;28;102048;-71
2022/12/23 08:20:34;;;;;;;;;2.25;1.75;;;;;3.61;99.73;97625.56;4916171;28;102172;-71
2022/12/23 08:23:01;;;;;;;;;1.00;1.00;;;;;3.56;99.87;97618.09;4920747;28;104017;-71
2022/12/23 08:25:28;;;;;;;;;2.25;1.00;;;;;3.65;99.54;97623.41;4917693;28;102207;-72
2022/12/23 08:27:55;;;;;;;;;2.25;0.75;;;;;3.67;99.09;97619.50;4922476;28;102710;-81
2022/12/23 08:30:22;;;;;;;;;0.00;0.00;;;;;3.70;99.60;97613.78;4929729;28;103401;-82
2022/12/23 08:32:49;;;;;;;;;1.00;0.75;;;;;3.78;99.25;97612.91;4925782;28;104039;-82
2022/12/23 08:35:16;;;;;;;;;0.00;0.00;;;;;3.87;99.20;97611.81;4928539;28;101896;-77
2022/12/23 08:37:43;;;;;;;;;0.00;0.00;;;;;3.97;99.11;97602.47;4917097;28;102300;-80
2022/12/23 08:40:10;;;;;;;;;0.00;0.00;;;;;4.10;99.42;97606.38;4924176;28;102272;-81
2022/12/23 08:42:37;;;;;;;;;0.00;0.00;;;;;4.22;98.94;97610.25;4908433;28;105349;-80
2022/12/23 08:45:05;;;;;;;;;0.00;0.00;;;;;4.29;99.17;97592.41;4923800;28;101871;-81
2022/12/23 08:47:32;;;;;;;;;1.25;0.00;;;;;4.41;98.63;97589.06;4929830;28;101926;-80
2022/12/23 08:49:59;;;;;;;;;0.00;0.00;;;;;4.55;97.95;97589.25;4933820;28;102228;-82
2022/12/23 08:52:26;;;;;;;;;0.00;0.00;;;;;4.59;97.59;97585.19;4937679;28;102287;-83
2022/12/23 08:54:53;;;;;;;;;1.00;1.00;;;;;4.68;97.71;97590.25;4938825;28;101840;-83
2022/12/23 08:57:20;;;;;;;;;1.00;1.00;;;;;4.75;97.11;97584.94;4937829;28;101971;-82
2022/12/23 08:59:47;;;;;;;;;2.25;1.50;;;;;4.82;96.89;97588.50;4908775;28;102866;-82
2022/12/23 09:02:14;;;;;;;;;2.25;1.00;;;;;4.87;97.07;97592.28;4932410;28;104169;-83
2022/12/23 09:04:41;;;;;;;;;0.00;0.00;;;;;4.88;96.89;97579.72;4937493;28;102448;-82
2022/12/23 09:07:09;;;;;;;;;0.00;0.00;;;;;4.82;96.68;97575.13;4934998;28;101970;-80
2022/12/23 09:09:37;;;;;;;;;0.00;0.00;;;;;4.74;96.19;97569.88;4933417;28;102183;-80
2022/12/23 09:12:04;;;;;;;;;2.50;2.00;;;;;4.66;96.17;97570.00;4927465;28;103335;-81
2022/12/23 09:14:31;;;;;;;;;1.25;1.00;;;;;4.64;96.51;97566.72;4935162;28;102363;-74
2022/12/23 09:16:58;;;;;;;;;1.25;1.00;;;;;4.64;97.08;97559.47;4928094;28;102014;-81
2022/12/23 09:19:26;;;;;;;;;1.00;1.00;;;;;4.66;96.95;97564.66;4931972;28;102096;-80
2022/12/23 09:21:53;;;;;;;;;0.00;0.00;;;;;4.73;97.30;97557.50;4914611;28;104545;-81
2022/12/23 09:24:20;;;;;;;;;1.00;0.75;;;;;4.82;97.08;97559.06;4926768;28;105432;-79
2022/12/23 09:26:47;;;;;;;;;0.00;0.00;;;;;4.91;96.72;97558.75;4935980;28;102090;-79
2022/12/23 09:29:14;;;;;;;;;1.00;1.00;;;;;5.00;95.99;97551.41;4920802;28;102084;-78
2022/12/23 09:31:41;;;;;;;;;1.00;0.00;;;;;5.08;96.38;97548.63;4926989;28;104517;-76
2022/12/23 09:34:09;;;;;;;;;0.00;0.00;;;;;5.17;96.56;97539.44;4935063;28;102133;-79
2022/12/23 09:36:36;;;;;;;;;1.25;1.25;;;;;5.24;95.96;97531.44;4915800;28;102388;-78
2022/12/23 09:39:03;;;;;;;;;2.00;1.00;;;;;5.22;95.57;97528.94;4933997;28;102380;-79
2022/12/23 09:41:33;;;;;;;;;1.25;1.25;;;;;5.27;95.05;97525.66;4937347;28;103202;-73
2022/12/23 09:44:09;;;;;;;;;1.75;1.75;;;;;5.32;95.10;97517.88;4935642;28;103634;-79
2022/12/23 09:46:43;;;;;;;;;1.00;1.00;;;;;5.34;95.07;97522.03;4903983;28;102107;-78
2022/12/23 09:49:13;;;;;;;;;1.00;1.00;;;;;5.40;94.87;97521.25;4920462;28;103410;-79
2022/12/23 09:51:42;;;;;;;;;1.00;1.00;;;;;5.42;95.39;97517.53;4918431;28;104068;-80
2022/12/23 09:54:23;;;;;;;;;1.00;0.00;;;;;5.45;94.98;97517.97;4909835;28;102181;-79
2022/12/23 09:56:58;;;;;;;;;0.75;0.25;;;;;5.47;95.08;97515.94;4917913;28;102079;-78
2022/12/23 09:59:40;;;;;;;;;1.50;1.00;;;;;5.49;95.31;97523.81;4933520;28;102436;-80
2022/12/23 10:02:10;;;;;;;;;1.00;0.00;;;;;5.52;94.99;97515.34;4935605;28;107489;-79
2022/12/23 10:04:44;;;;;;;;;0.25;0.25;;;;;5.58;95.71;97509.22;4931935;28;101884;-80
2022/12/23 10:07:21;;;;;;;;;1.00;1.00;;;;;5.63;95.61;97509.47;4933224;28;102052;-79
2022/12/23 10:09:51;;;;;;;;;5.00;2.50;;;;;5.68;95.59;97507.00;4926633;28;101895;-79
2022/12/23 10:12:27;;;;;;;;;1.75;1.75;;;;;5.73;95.31;97504.56;4909811;28;104039;-78
2022/12/23 10:15:07;;;;;;;;;3.00;2.00;;;;;5.81;95.81;97501.72;4930845;28;102444;-78
2022/12/23 10:17:40;;;;;;;;;3.50;2.25;;;;;5.82;94.06;97495.31;4934169;28;102684;-78
2022/12/23 10:20:17;;;;;;;;;4.00;3.00;;;;;5.85;94.29;97482.34;4926266;28;101960;-79
2022/12/23 10:22:45;;;;;;;;;7.00;6.00;;;;;5.84;94.64;97490.59;4926442;28;104237;-79
2022/12/23 10:25:36;;;;;;;;;5.25;5.25;;;;;5.94;94.21;97488.44;4932679;28;102058;-79
2022/12/23 10:28:03;;;;;;;;;6.00;6.00;;;;;6.07;93.95;97501.06;4921940;28;102821;-80
2022/12/23 10:30:35;;;;;;;;;3.50;3.50;;;;;6.16;93.68;97492.66;4936937;28;107684;-79
2022/12/23 10:33:31;;;;;;;;;4.25;3.00;;;;;6.15;93.06;97492.84;4930302;28;109888;-79
2022/12/23 10:36:14;;;;;;;;;4.25;2.75;;;;;6.19;92.62;97496.78;4922329;28;102086;-80
2022/12/23 10:38:44;;;;;;;;;6.50;6.25;;;;;6.14;92.50;97488.50;4903289;28;106788;-76
2022/12/23 10:41:43;;;;;;;;;6.00;4.00;;;;;6.13;92.53;97493.03;4926635;28;102549;-77
2022/12/23 10:44:30;;;;;;;;;4.00;3.00;;;;;6.19;93.50;97489.56;4895924;28;109249;-78
2022/12/23 10:47:13;;;;;;;;;3.00;3.00;;;;;6.19;92.99;97499.47;4923272;28;102004;-78
2022/12/23 10:50:00;;;;;;;;;2.00;2.00;;;;;6.21;93.03;97492.06;4931610;28;102303;-78
2022/12/23 10:52:31;;;;;;;;;3.00;2.00;;;;;6.21;93.39;97492.84;4908003;28;102433;-78
2022/12/23 10:54:58;;;;;;;;;2.00;2.00;;;;;6.23;93.69;97489.97;4921577;28;108504;-78
2022/12/23 10:57:26;;;;;;;;;3.00;1.00;;;;;6.17;93.04;97480.03;4888037;28;102724;-78
2022/12/23 10:59:53;;;;;;;;;1.75;1.50;;;;;6.18;93.00;97482.53;4904543;28;102142;-78
2022/12/23 11:02:19;;;;;;;;;2.50;2.50;;;;;6.17;92.66;97488.09;4929321;28;102146;-78
2022/12/23 11:04:48;;;;;;;;;1.00;1.00;;;;;6.12;92.64;97480.63;4912073;28;103982;-76
2022/12/23 11:07:21;;;;;;;;;1.00;1.00;;;;;6.15;92.84;97485.63;4929545;28;102494;-78
2022/12/23 11:10:16;;;;;;;;;1.00;1.00;;;;;6.15;92.84;97488.31;4929583;28;102270;-78
2022/12/23 11:12:50;;;;;;;;;1.75;1.75;;;;;6.16;93.17;97494.50;4917507;28;102218;-78
2022/12/23 11:15:38;;;;;;;;;1.75;1.75;;;;;6.11;92.68;97487.06;4904777;28;104367;-78
2022/12/23 11:18:11;;;;;;;;;2.25;1.00;;;;;6.13;92.98;97494.88;4908338;28;102241;-77
2022/12/23 11:20:40;;;;;;;;;1.25;1.25;;;;;6.13;93.04;97501.09;4926528;28;102820;-78
2022/12/23 11:23:28;;;;;;;;;0.00;0.00;;;;;6.13;93.09;97484.97;4914718;28;102020;-78
2022/12/23 11:26:00;;;;;;;;;3.00;1.50;;;;;6.08;92.93;97495.47;4920215;28;104042;-78
2022/12/23 11:28:28;;;;;;;;;2.00;1.00;;;;;6.10;93.09;97493.44;4930191;28;102082;-78
2022/12/23 11:31:07;;;;;;;;;1.50;1.25;;;;;6.08;93.42;97486.63;4931340;28;102600;-77
2022/12/23 11:33:38;;;;;;;;;2.00;1.00;;;;;6.06;93.06;97489.50;4933804;28;102406;-78
2022/12/23 11:36:11;;;;;;;;;1.00;1.00;;;;;6.06;93.76;97494.88;4932683;28;104028;-77
2022/12/23 11:39:03;;;;;;;;;1.00;1.00;;;;;6.07;93.55;97493.84;4924813;28;101969;-78
2022/12/23 11:41:37;;;;;;;;;1.75;1.00;;;;;6.10;93.92;97492.59;4936844;28;102242;-79
2022/12/23 11:44:29;;;;;;;;;0.00;0.00;;;;;6.15;94.17;97493.66;4934070;28;102096;-78
2022/12/23 11:46:57;;;;;;;;;1.00;1.00;;;;;6.17;94.37;97490.75;4928920;28;109606;-79
2022/12/23 11:49:30;;;;;;;;;1.00;0.75;;;;;6.24;94.36;97503.22;4935532;28;102386;-79
2022/12/23 11:52:11;;;;;;;;;1.50;1.00;;;;;6.27;93.44;97488.53;4936103;28;102320;-79
2022/12/23 11:54:38;;;;;;;;;0.00;0.00;;;;;6.27;93.75;97492.06;4935173;28;101952;-78
2022/12/23 11:57:14;;;;;;;;;0.00;0.00;;;;;6.33;93.96;97495.81;4932568;28;103873;-79
2022/12/23 11:59:48;;;;;;;;;0.50;0.00;;;;;6.35;93.88;97484.88;4934210;28;106264;-79
2022/12/23 12:02:30;;;;;;;;;0.75;0.25;;;;;6.30;93.99;97490.00;4910426;28;102321;-77
2022/12/23 12:05:07;;;;;;;;;0.75;0.75;;;;;6.30;94.25;97492.69;4918357;28;102259;-78
2022/12/23 12:07:35;;;;;;;;;0.50;0.25;;;;;6.26;94.41;97495.75;4925734;28;108856;-78
2022/12/23 12:10:03;;;;;;;;;1.50;1.50;;;;;6.30;94.31;97495.38;4931247;28;101976;-77
2022/12/23 12:12:31;;;;;;;;;1.00;1.00;;;;;6.35;94.48;97499.09;4935124;28;102215;-78
2022/12/23 12:14:59;;;;;;;;;1.25;0.75;;;;;6.35;94.07;97479.50;4935708;28;102191;-78
2022/12/23 12:17:31;;;;;;;;;0.50;0.50;;;;;6.41;94.86;97486.72;4931337;28;103759;-79